FNHU/NOV METAR and TAF weather

Enter ICAO airport designator
Station Type Date Time Source
FNHU METAR 2020/04/06 15:00 UTC NOAA

FNHU 061500Z 23006KT 9000 VCSH BKN015 29/15 Q1019


Station Type Date Time Source
FNHU Decoded METAR 2020/04/06 15:00 UTC NOAA

Huambo Nova Lisboa , Angola (FNHU) 12-48S 015-45E 1701M
Apr 06, 2020 - 11:00 AM EDT / 2020.04.06 1500 UTC
Wind: from the SW (230 degrees) at 7 MPH (6 KT):0
Visibility: 5 mile(s):0
Sky conditions: mostly cloudy
Weather: showers in the vicinity
Temperature: 84 F (29 C)
Dew Point: 59 F (15 C)
Relative Humidity: 42%
Pressure (altimeter): 30.09 in. Hg (1019 hPa)
ob: FNHU 061500Z 23006KT 9000 VCSH BKN015 29/15 Q1019
cycle: 15

Station Type Date Time Source
FNHU TAF 2020/04/06 12:39 UTC NOAA

TAF TAF FNHU 061100Z 0612/0624 35005KT 9999 SCT015 FEW020CB BKN050 PROB30
TEMPO 0614/0618 6000 -TSRA

Example: see airport list